Portada
METAR-TAF:

METAR-TAF

Aeroports :

Campina Grande, Paraíba, Brasil

latitud: 07-13S, longitud: 035-53W, altitud: 548 m

Observació

L'informe es va fer fa 48 minuts, a les 18:00 UTC
Vent 10 kt del Est/Sud-Est
Temperatura 31°C
Humitat 36%
Pressió 1011 hPa
Visibilitat 10 km o més
Escasses núvols a una alçada de 4000 ft

METAR: SBKG 211800Z 12010KT 9999 FEW040 31/14 Q1011

Hora: 16:48 (18:48 UTC)

Pronòstic

L'informe es va fer fa 2 hores i 48 minuts, a les 16:00 UTC
Pronòstic vàlid del 21 a les 18 UTC al 22 a les 06 UTC
Vent 10 kt del Est/Sud-Est
Visibilitat 10 km o més
Escasses núvols a una alçada de 4000 ft
Evolucionant progressivament
l' 21 a les 22 UTC al 21 a les 24 UTC
Escasses núvols a una alçada de 1500 ft

TAF: SBKG 211600Z 2118/2206 11010KT 9999 FEW040 TX31/2118Z TN21/2206Z BECMG 2122/2124 FEW015 RMK PEH

Observacions i pronòstics meteorològics de més de 4000 aeroports (METAR i TAF).

Les estacions disponibles són els punts grocs i vermells al mapa.

Posi el ratolí al punt desitjat per veure el nom de l'estació.

Feu clic per veure les observacions i els pronòstics meteorològics.

Per canviar el mapa: feu clic els botons verds amb una creu de color negre per apropar; al botó verd amb un guió per allunyar la imatge; o en les fletxes verdes per a mapes adjacents.


METAR-TAF: